Terminal Aerodrome Forecast
Issued by NWS

Home | Current Version | Previous Version | Text Only | Print | Product List | Glossary On
Versions: 1 2 3 4 5 6 7 8 9 10 11 12
974
FTUS44 KEPZ 060524
TAFTCS
TAF
KTCS 060524Z 0606/0706 17012KT P6SM VCTS SCT100CB BKN250
      TEMPO 0606/0608 VRB25G35KT 5SM -TSRA SCT080CB BKN100
     FM060800 27010KT P6SM SCT100 BKN250
     FM061700 19015G25KT P6SM FEW100
     FM062200 22020G30KT P6SM SCT100
     FM070300 26012G22KT P6SM SCT100=

USA.gov is the U.S. government's official web portal to all federal, state and local government web resources and services.